sensor_id;sensor_type;location;lat;lon;timestamp;P1;durP1;ratioP1;P2;durP2;ratioP2
17345;SDS011;8790;53.590;10.002;2023-04-03T00:00:22;6.17;;;2.23;;
17345;SDS011;8790;53.590;10.002;2023-04-03T00:02:53;4.83;;;1.83;;
17345;SDS011;8790;53.590;10.002;2023-04-03T00:05:30;5.70;;;1.97;;
17345;SDS011;8790;53.590;10.002;2023-04-03T00:08:02;4.67;;;2.03;;
17345;SDS011;8790;53.590;10.002;2023-04-03T00:10:38;3.77;;;1.67;;
17345;SDS011;8790;53.590;10.002;2023-04-03T00:13:10;3.67;;;1.97;;
17345;SDS011;8790;53.590;10.002;2023-04-03T00:15:42;5.03;;;2.10;;
17345;SDS011;8790;53.590;10.002;2023-04-03T00:18:14;6.90;;;2.10;;
17345;SDS011;8790;53.590;10.002;2023-04-03T00:20:46;3.13;;;1.70;;
17345;SDS011;8790;53.590;10.002;2023-04-03T00:23:18;4.80;;;1.80;;
17345;SDS011;8790;53.590;10.002;2023-04-03T00:25:51;3.57;;;1.83;;
17345;SDS011;8790;53.590;10.002;2023-04-03T00:28:23;4.97;;;1.90;;
17345;SDS011;8790;53.590;10.002;2023-04-03T00:30:55;5.80;;;2.10;;
17345;SDS011;8790;53.590;10.002;2023-04-03T00:33:27;5.73;;;2.30;;
17345;SDS011;8790;53.590;10.002;2023-04-03T00:35:59;5.47;;;2.00;;
17345;SDS011;8790;53.590;10.002;2023-04-03T00:38:35;7.57;;;2.13;;
17345;SDS011;8790;53.590;10.002;2023-04-03T00:41:08;4.13;;;1.97;;
17345;SDS011;8790;53.590;10.002;2023-04-03T00:43:40;7.57;;;2.07;;
17345;SDS011;8790;53.590;10.002;2023-04-03T00:46:12;4.37;;;2.10;;
17345;SDS011;8790;53.590;10.002;2023-04-03T00:48:44;6.00;;;2.40;;
17345;SDS011;8790;53.590;10.002;2023-04-03T00:51:19;4.77;;;2.00;;
17345;SDS011;8790;53.590;10.002;2023-04-03T00:53:55;4.63;;;2.00;;
17345;SDS011;8790;53.590;10.002;2023-04-03T00:56:31;5.13;;;2.00;;
17345;SDS011;8790;53.590;10.002;2023-04-03T00:59:04;6.90;;;2.47;;
17345;SDS011;8790;53.590;10.002;2023-04-03T01:01:38;8.27;;;2.30;;
17345;SDS011;8790;53.590;10.002;2023-04-03T01:04:24;9.17;;;2.50;;
17345;SDS011;8790;53.590;10.002;2023-04-03T01:07:00;4.60;;;2.20;;
17345;SDS011;8790;53.590;10.002;2023-04-03T01:09:36;6.17;;;2.17;;
17345;SDS011;8790;53.590;10.002;2023-04-03T01:12:17;4.83;;;2.17;;
17345;SDS011;8790;53.590;10.002;2023-04-03T01:14:52;3.83;;;2.17;;
17345;SDS011;8790;53.590;10.002;2023-04-03T01:17:30;6.13;;;2.27;;
17345;SDS011;8790;53.590;10.002;2023-04-03T01:23:22;6.30;;;2.00;;
17345;SDS011;8790;53.590;10.002;2023-04-03T01:26:01;8.03;;;2.00;;
17345;SDS011;8790;53.590;10.002;2023-04-03T01:28:35;3.77;;;1.93;;
17345;SDS011;8790;53.590;10.002;2023-04-03T01:31:10;3.70;;;2.07;;
17345;SDS011;8790;53.590;10.002;2023-04-03T01:33:49;5.30;;;1.77;;
17345;SDS011;8790;53.590;10.002;2023-04-03T01:36:22;5.83;;;2.17;;
17345;SDS011;8790;53.590;10.002;2023-04-03T01:38:56;5.87;;;2.13;;
17345;SDS011;8790;53.590;10.002;2023-04-03T01:41:29;5.93;;;2.30;;
17345;SDS011;8790;53.590;10.002;2023-04-03T01:44:08;6.00;;;2.23;;
17345;SDS011;8790;53.590;10.002;2023-04-03T01:46:40;5.67;;;2.30;;
17345;SDS011;8790;53.590;10.002;2023-04-03T01:49:13;4.83;;;1.83;;
17345;SDS011;8790;53.590;10.002;2023-04-03T01:51:45;4.37;;;2.13;;
17345;SDS011;8790;53.590;10.002;2023-04-03T01:54:17;5.50;;;2.13;;
17345;SDS011;8790;53.590;10.002;2023-04-03T01:56:49;5.40;;;1.97;;
17345;SDS011;8790;53.590;10.002;2023-04-03T01:59:22;6.13;;;2.20;;
17345;SDS011;8790;53.590;10.002;2023-04-03T02:01:55;6.03;;;2.13;;
17345;SDS011;8790;53.590;10.002;2023-04-03T02:04:28;4.00;;;2.07;;
17345;SDS011;8790;53.590;10.002;2023-04-03T02:07:00;4.07;;;1.87;;
17345;SDS011;8790;53.590;10.002;2023-04-03T02:09:32;3.17;;;1.80;;
17345;SDS011;8790;53.590;10.002;2023-04-03T02:12:04;5.13;;;1.87;;
17345;SDS011;8790;53.590;10.002;2023-04-03T02:14:37;6.03;;;1.83;;
17345;SDS011;8790;53.590;10.002;2023-04-03T02:17:08;5.73;;;1.90;;
17345;SDS011;8790;53.590;10.002;2023-04-03T02:19:41;4.63;;;2.10;;
17345;SDS011;8790;53.590;10.002;2023-04-03T02:22:13;4.20;;;1.90;;
17345;SDS011;8790;53.590;10.002;2023-04-03T02:24:45;10.87;;;2.27;;
17345;SDS011;8790;53.590;10.002;2023-04-03T02:27:17;4.20;;;1.90;;
17345;SDS011;8790;53.590;10.002;2023-04-03T02:29:49;3.93;;;2.00;;
17345;SDS011;8790;53.590;10.002;2023-04-03T02:32:21;3.80;;;2.00;;
17345;SDS011;8790;53.590;10.002;2023-04-03T02:34:54;3.30;;;1.70;;
17345;SDS011;8790;53.590;10.002;2023-04-03T02:37:26;5.37;;;1.93;;
17345;SDS011;8790;53.590;10.002;2023-04-03T02:39:58;5.97;;;2.00;;
17345;SDS011;8790;53.590;10.002;2023-04-03T02:42:31;5.03;;;1.80;;
17345;SDS011;8790;53.590;10.002;2023-04-03T02:45:04;5.50;;;1.80;;
17345;SDS011;8790;53.590;10.002;2023-04-03T02:47:36;5.70;;;1.90;;
17345;SDS011;8790;53.590;10.002;2023-04-03T02:50:10;5.00;;;2.10;;
17345;SDS011;8790;53.590;10.002;2023-04-03T02:52:41;3.23;;;1.80;;
17345;SDS011;8790;53.590;10.002;2023-04-03T02:55:14;6.30;;;2.00;;
17345;SDS011;8790;53.590;10.002;2023-04-03T02:57:48;4.60;;;1.83;;
17345;SDS011;8790;53.590;10.002;2023-04-03T03:00:20;5.43;;;1.63;;
17345;SDS011;8790;53.590;10.002;2023-04-03T03:02:51;5.43;;;2.07;;
17345;SDS011;8790;53.590;10.002;2023-04-03T03:05:24;6.17;;;2.00;;
17345;SDS011;8790;53.590;10.002;2023-04-03T03:07:56;5.07;;;1.90;;
17345;SDS011;8790;53.590;10.002;2023-04-03T03:10:28;5.50;;;1.87;;
17345;SDS011;8790;53.590;10.002;2023-04-03T03:13:00;5.17;;;2.00;;
17345;SDS011;8790;53.590;10.002;2023-04-03T03:15:33;3.53;;;1.80;;
17345;SDS011;8790;53.590;10.002;2023-04-03T03:18:06;6.53;;;2.00;;
17345;SDS011;8790;53.590;10.002;2023-04-03T03:20:39;5.73;;;1.97;;
17345;SDS011;8790;53.590;10.002;2023-04-03T03:23:10;4.80;;;1.93;;
17345;SDS011;8790;53.590;10.002;2023-04-03T03:25:42;3.80;;;1.70;;
17345;SDS011;8790;53.590;10.002;2023-04-03T03:28:14;4.97;;;1.67;;
17345;SDS011;8790;53.590;10.002;2023-04-03T03:30:46;4.03;;;1.70;;
17345;SDS011;8790;53.590;10.002;2023-04-03T03:33:18;3.60;;;1.90;;
17345;SDS011;8790;53.590;10.002;2023-04-03T03:35:51;5.33;;;2.00;;
17345;SDS011;8790;53.590;10.002;2023-04-03T03:38:23;5.10;;;1.90;;
17345;SDS011;8790;53.590;10.002;2023-04-03T03:40:56;5.47;;;1.80;;
17345;SDS011;8790;53.590;10.002;2023-04-03T03:43:28;4.70;;;1.87;;
17345;SDS011;8790;53.590;10.002;2023-04-03T03:46:00;5.07;;;1.83;;
17345;SDS011;8790;53.590;10.002;2023-04-03T03:48:32;6.27;;;2.00;;
17345;SDS011;8790;53.590;10.002;2023-04-03T03:51:05;3.77;;;1.70;;
17345;SDS011;8790;53.590;10.002;2023-04-03T03:53:40;5.73;;;1.90;;
17345;SDS011;8790;53.590;10.002;2023-04-03T03:56:17;6.93;;;1.90;;
17345;SDS011;8790;53.590;10.002;2023-04-03T03:58:49;3.87;;;1.80;;
17345;SDS011;8790;53.590;10.002;2023-04-03T04:01:21;6.17;;;2.30;;
17345;SDS011;8790;53.590;10.002;2023-04-03T04:03:53;4.97;;;1.80;;
17345;SDS011;8790;53.590;10.002;2023-04-03T04:06:30;4.40;;;2.23;;
17345;SDS011;8790;53.590;10.002;2023-04-03T04:09:06;5.90;;;2.00;;
17345;SDS011;8790;53.590;10.002;2023-04-03T04:11:38;4.20;;;2.10;;
17345;SDS011;8790;53.590;10.002;2023-04-03T04:14:11;8.73;;;4.80;;
17345;SDS011;8790;53.590;10.002;2023-04-03T04:16:45;6.87;;;2.40;;
17345;SDS011;8790;53.590;10.002;2023-04-03T04:19:22;4.30;;;2.20;;
17345;SDS011;8790;53.590;10.002;2023-04-03T04:21:55;4.93;;;2.30;;
17345;SDS011;8790;53.590;10.002;2023-04-03T04:24:27;5.50;;;2.20;;
17345;SDS011;8790;53.590;10.002;2023-04-03T04:27:00;3.93;;;2.13;;
17345;SDS011;8790;53.590;10.002;2023-04-03T04:29:34;5.43;;;2.10;;
17345;SDS011;8790;53.590;10.002;2023-04-03T04:32:08;4.23;;;2.03;;
17345;SDS011;8790;53.590;10.002;2023-04-03T04:34:40;4.97;;;2.27;;
17345;SDS011;8790;53.590;10.002;2023-04-03T04:37:14;6.03;;;2.30;;
17345;SDS011;8790;53.590;10.002;2023-04-03T04:39:45;6.77;;;2.07;;
17345;SDS011;8790;53.590;10.002;2023-04-03T04:42:17;5.13;;;2.63;;
17345;SDS011;8790;53.590;10.002;2023-04-03T04:44:52;7.40;;;2.70;;
17345;SDS011;8790;53.590;10.002;2023-04-03T04:47:23;5.93;;;2.57;;
17345;SDS011;8790;53.590;10.002;2023-04-03T04:49:55;5.27;;;2.40;;
17345;SDS011;8790;53.590;10.002;2023-04-03T04:52:28;7.03;;;2.73;;
17345;SDS011;8790;53.590;10.002;2023-04-03T04:55:00;6.97;;;3.43;;
17345;SDS011;8790;53.590;10.002;2023-04-03T04:57:32;5.07;;;2.93;;
17345;SDS011;8790;53.590;10.002;2023-04-03T05:00:05;8.00;;;2.90;;
17345;SDS011;8790;53.590;10.002;2023-04-03T05:02:38;6.80;;;2.57;;
17345;SDS011;8790;53.590;10.002;2023-04-03T05:05:10;6.33;;;3.00;;
17345;SDS011;8790;53.590;10.002;2023-04-03T05:07:43;4.40;;;2.67;;
17345;SDS011;8790;53.590;10.002;2023-04-03T05:10:16;5.03;;;2.20;;
17345;SDS011;8790;53.590;10.002;2023-04-03T05:12:49;4.77;;;2.40;;
17345;SDS011;8790;53.590;10.002;2023-04-03T05:15:21;5.07;;;2.53;;
17345;SDS011;8790;53.590;10.002;2023-04-03T05:17:53;3.77;;;2.50;;
17345;SDS011;8790;53.590;10.002;2023-04-03T05:20:25;7.33;;;2.47;;
17345;SDS011;8790;53.590;10.002;2023-04-03T05:22:59;5.43;;;2.73;;
17345;SDS011;8790;53.590;10.002;2023-04-03T05:25:31;4.67;;;2.53;;
17345;SDS011;8790;53.590;10.002;2023-04-03T05:28:03;5.23;;;3.13;;
17345;SDS011;8790;53.590;10.002;2023-04-03T05:30:35;5.07;;;2.60;;
17345;SDS011;8790;53.590;10.002;2023-04-03T05:33:07;4.30;;;2.90;;
17345;SDS011;8790;53.590;10.002;2023-04-03T05:35:47;8.27;;;2.57;;
17345;SDS011;8790;53.590;10.002;2023-04-03T05:38:23;5.93;;;3.23;;
17345;SDS011;8790;53.590;10.002;2023-04-03T05:40:56;7.63;;;3.80;;
17345;SDS011;8790;53.590;10.002;2023-04-03T05:43:28;6.53;;;3.03;;
17345;SDS011;8790;53.590;10.002;2023-04-03T05:46:00;5.57;;;2.80;;
17345;SDS011;8790;53.590;10.002;2023-04-03T05:48:33;6.27;;;2.70;;
17345;SDS011;8790;53.590;10.002;2023-04-03T05:51:05;5.17;;;2.60;;
17345;SDS011;8790;53.590;10.002;2023-04-03T05:53:39;5.17;;;2.77;;
17345;SDS011;8790;53.590;10.002;2023-04-03T05:56:11;8.07;;;3.10;;
17345;SDS011;8790;53.590;10.002;2023-04-03T05:58:44;8.30;;;2.87;;
17345;SDS011;8790;53.590;10.002;2023-04-03T06:01:16;6.63;;;3.47;;
17345;SDS011;8790;53.590;10.002;2023-04-03T06:03:48;9.27;;;3.30;;
17345;SDS011;8790;53.590;10.002;2023-04-03T06:06:20;5.20;;;2.90;;
17345;SDS011;8790;53.590;10.002;2023-04-03T06:08:53;8.60;;;3.27;;
17345;SDS011;8790;53.590;10.002;2023-04-03T06:11:25;6.50;;;2.93;;
17345;SDS011;8790;53.590;10.002;2023-04-03T06:13:57;6.33;;;2.90;;
17345;SDS011;8790;53.590;10.002;2023-04-03T06:16:29;7.77;;;3.30;;
17345;SDS011;8790;53.590;10.002;2023-04-03T06:19:00;9.17;;;2.80;;
17345;SDS011;8790;53.590;10.002;2023-04-03T06:21:32;6.00;;;2.40;;
17345;SDS011;8790;53.590;10.002;2023-04-03T06:24:07;4.83;;;2.50;;
17345;SDS011;8790;53.590;10.002;2023-04-03T06:26:40;4.17;;;2.40;;
17345;SDS011;8790;53.590;10.002;2023-04-03T06:29:12;7.83;;;2.67;;
17345;SDS011;8790;53.590;10.002;2023-04-03T06:31:44;7.07;;;2.97;;
17345;SDS011;8790;53.590;10.002;2023-04-03T06:34:16;8.47;;;2.90;;
17345;SDS011;8790;53.590;10.002;2023-04-03T06:36:48;5.67;;;2.63;;
17345;SDS011;8790;53.590;10.002;2023-04-03T06:39:22;7.00;;;2.30;;
17345;SDS011;8790;53.590;10.002;2023-04-03T06:41:53;7.17;;;2.50;;
17345;SDS011;8790;53.590;10.002;2023-04-03T06:44:41;8.03;;;2.43;;
17345;SDS011;8790;53.590;10.002;2023-04-03T06:47:13;4.47;;;2.27;;
17345;SDS011;8790;53.590;10.002;2023-04-03T06:49:46;5.43;;;2.07;;
17345;SDS011;8790;53.590;10.002;2023-04-03T06:52:17;5.33;;;2.33;;
17345;SDS011;8790;53.590;10.002;2023-04-03T06:54:50;3.30;;;1.70;;
17345;SDS011;8790;53.590;10.002;2023-04-03T06:57:27;4.17;;;2.10;;
17345;SDS011;8790;53.590;10.002;2023-04-03T06:59:58;4.40;;;1.93;;
17345;SDS011;8790;53.590;10.002;2023-04-03T07:02:30;3.40;;;1.70;;
17345;SDS011;8790;53.590;10.002;2023-04-03T07:05:02;3.90;;;1.80;;
17345;SDS011;8790;53.590;10.002;2023-04-03T07:07:34;3.10;;;1.70;;
17345;SDS011;8790;53.590;10.002;2023-04-03T07:10:09;5.73;;;2.27;;
17345;SDS011;8790;53.590;10.002;2023-04-03T07:12:41;4.17;;;1.50;;
17345;SDS011;8790;53.590;10.002;2023-04-03T07:15:13;3.03;;;1.50;;
17345;SDS011;8790;53.590;10.002;2023-04-03T07:17:45;4.10;;;1.60;;
17345;SDS011;8790;53.590;10.002;2023-04-03T07:20:16;2.07;;;1.10;;
17345;SDS011;8790;53.590;10.002;2023-04-03T07:22:48;4.83;;;1.20;;
17345;SDS011;8790;53.590;10.002;2023-04-03T07:25:21;3.63;;;1.10;;
17345;SDS011;8790;53.590;10.002;2023-04-03T07:27:53;3.33;;;1.23;;
17345;SDS011;8790;53.590;10.002;2023-04-03T07:30:25;2.43;;;1.10;;
17345;SDS011;8790;53.590;10.002;2023-04-03T07:32:57;2.93;;;1.20;;
17345;SDS011;8790;53.590;10.002;2023-04-03T07:35:28;5.23;;;1.50;;
17345;SDS011;8790;53.590;10.002;2023-04-03T07:38:00;3.30;;;1.40;;
17345;SDS011;8790;53.590;10.002;2023-04-03T07:40:33;4.17;;;1.40;;
17345;SDS011;8790;53.590;10.002;2023-04-03T07:43:06;3.97;;;1.53;;
17345;SDS011;8790;53.590;10.002;2023-04-03T07:45:38;2.70;;;1.17;;
17345;SDS011;8790;53.590;10.002;2023-04-03T07:48:10;3.57;;;1.57;;
17345;SDS011;8790;53.590;10.002;2023-04-03T07:50:42;3.13;;;1.67;;
17345;SDS011;8790;53.590;10.002;2023-04-03T07:53:14;4.37;;;2.10;;
17345;SDS011;8790;53.590;10.002;2023-04-03T07:55:48;3.20;;;1.00;;
17345;SDS011;8790;53.590;10.002;2023-04-03T07:58:21;4.30;;;1.60;;
17345;SDS011;8790;53.590;10.002;2023-04-03T08:00:53;3.40;;;1.37;;
17345;SDS011;8790;53.590;10.002;2023-04-03T08:03:25;2.17;;;1.30;;
17345;SDS011;8790;53.590;10.002;2023-04-03T08:06:00;5.63;;;1.30;;
17345;SDS011;8790;53.590;10.002;2023-04-03T08:08:34;3.87;;;1.33;;
17345;SDS011;8790;53.590;10.002;2023-04-03T08:11:07;4.50;;;1.50;;
17345;SDS011;8790;53.590;10.002;2023-04-03T08:13:40;3.77;;;1.20;;
17345;SDS011;8790;53.590;10.002;2023-04-03T08:16:15;3.10;;;1.07;;
17345;SDS011;8790;53.590;10.002;2023-04-03T08:18:48;4.13;;;1.43;;
17345;SDS011;8790;53.590;10.002;2023-04-03T08:21:20;2.60;;;1.10;;
17345;SDS011;8790;53.590;10.002;2023-04-03T08:23:52;2.47;;;1.30;;
17345;SDS011;8790;53.590;10.002;2023-04-03T08:26:26;4.33;;;1.30;;
17345;SDS011;8790;53.590;10.002;2023-04-03T08:28:57;4.77;;;1.40;;
17345;SDS011;8790;53.590;10.002;2023-04-03T08:31:29;4.17;;;1.50;;
17345;SDS011;8790;53.590;10.002;2023-04-03T08:34:01;4.00;;;2.30;;
17345;SDS011;8790;53.590;10.002;2023-04-03T08:36:32;1.93;;;1.23;;
17345;SDS011;8790;53.590;10.002;2023-04-03T08:39:04;2.70;;;1.00;;
17345;SDS011;8790;53.590;10.002;2023-04-03T08:41:38;3.60;;;1.40;;
17345;SDS011;8790;53.590;10.002;2023-04-03T08:44:15;3.43;;;1.30;;
17345;SDS011;8790;53.590;10.002;2023-04-03T08:47:02;4.77;;;1.00;;
17345;SDS011;8790;53.590;10.002;2023-04-03T08:49:43;3.70;;;1.10;;
17345;SDS011;8790;53.590;10.002;2023-04-03T08:52:17;2.93;;;1.10;;
17345;SDS011;8790;53.590;10.002;2023-04-03T08:54:54;3.73;;;1.13;;
17345;SDS011;8790;53.590;10.002;2023-04-03T08:57:30;2.53;;;1.17;;
17345;SDS011;8790;53.590;10.002;2023-04-03T09:00:05;2.20;;;1.00;;
17345;SDS011;8790;53.590;10.002;2023-04-03T09:02:47;2.47;;;0.93;;
17345;SDS011;8790;53.590;10.002;2023-04-03T09:05:33;1.50;;;1.07;;
17345;SDS011;8790;53.590;10.002;2023-04-03T09:08:12;4.13;;;1.20;;
17345;SDS011;8790;53.590;10.002;2023-04-03T09:10:55;3.67;;;1.37;;
17345;SDS011;8790;53.590;10.002;2023-04-03T09:13:39;3.27;;;1.00;;
17345;SDS011;8790;53.590;10.002;2023-04-03T09:16:19;2.70;;;1.10;;
17345;SDS011;8790;53.590;10.002;2023-04-03T09:19:02;1.43;;;0.87;;
17345;SDS011;8790;53.590;10.002;2023-04-03T09:21:39;1.73;;;1.00;;
17345;SDS011;8790;53.590;10.002;2023-04-03T09:24:12;2.23;;;0.90;;
17345;SDS011;8790;53.590;10.002;2023-04-03T09:26:46;2.27;;;1.00;;
17345;SDS011;8790;53.590;10.002;2023-04-03T09:29:24;3.30;;;1.20;;
17345;SDS011;8790;53.590;10.002;2023-04-03T09:31:57;3.30;;;1.00;;
17345;SDS011;8790;53.590;10.002;2023-04-03T09:34:32;3.80;;;1.07;;
17345;SDS011;8790;53.590;10.002;2023-04-03T09:37:06;3.10;;;1.10;;
17345;SDS011;8790;53.590;10.002;2023-04-03T09:39:48;3.27;;;1.13;;
17345;SDS011;8790;53.590;10.002;2023-04-03T09:42:24;2.57;;;0.97;;
17345;SDS011;8790;53.590;10.002;2023-04-03T09:44:58;2.50;;;1.00;;
17345;SDS011;8790;53.590;10.002;2023-04-03T09:47:31;1.17;;;0.80;;
17345;SDS011;8790;53.590;10.002;2023-04-03T09:50:10;2.90;;;0.90;;
17345;SDS011;8790;53.590;10.002;2023-04-03T09:52:51;2.00;;;1.10;;
17345;SDS011;8790;53.590;10.002;2023-04-03T09:55:23;2.30;;;0.93;;
17345;SDS011;8790;53.590;10.002;2023-04-03T09:58:00;3.17;;;1.03;;
17345;SDS011;8790;53.590;10.002;2023-04-03T10:00:35;2.50;;;1.00;;
17345;SDS011;8790;53.590;10.002;2023-04-03T10:03:20;2.37;;;0.87;;
17345;SDS011;8790;53.590;10.002;2023-04-03T10:05:55;2.57;;;0.93;;
17345;SDS011;8790;53.590;10.002;2023-04-03T10:08:29;1.27;;;0.90;;
17345;SDS011;8790;53.590;10.002;2023-04-03T10:11:12;1.33;;;0.90;;
17345;SDS011;8790;53.590;10.002;2023-04-03T10:13:50;2.20;;;0.87;;
17345;SDS011;8790;53.590;10.002;2023-04-03T10:16:26;1.93;;;0.80;;
17345;SDS011;8790;53.590;10.002;2023-04-03T10:19:06;2.97;;;1.07;;
17345;SDS011;8790;53.590;10.002;2023-04-03T10:22:03;1.83;;;0.70;;
17345;SDS011;8790;53.590;10.002;2023-04-03T10:24:43;1.97;;;1.20;;
17345;SDS011;8790;53.590;10.002;2023-04-03T10:27:24;1.77;;;0.87;;
17345;SDS011;8790;53.590;10.002;2023-04-03T10:30:06;2.93;;;0.80;;
17345;SDS011;8790;53.590;10.002;2023-04-03T10:32:57;1.87;;;0.80;;
17345;SDS011;8790;53.590;10.002;2023-04-03T10:35:41;1.63;;;0.70;;
17345;SDS011;8790;53.590;10.002;2023-04-03T10:38:21;1.90;;;0.90;;
17345;SDS011;8790;53.590;10.002;2023-04-03T10:41:02;2.30;;;0.90;;
17345;SDS011;8790;53.590;10.002;2023-04-03T10:43:42;2.03;;;0.87;;
17345;SDS011;8790;53.590;10.002;2023-04-03T10:46:20;1.53;;;1.00;;
17345;SDS011;8790;53.590;10.002;2023-04-03T10:49:04;1.27;;;0.70;;
17345;SDS011;8790;53.590;10.002;2023-04-03T10:51:43;2.17;;;0.93;;
17345;SDS011;8790;53.590;10.002;2023-04-03T10:54:18;2.10;;;0.90;;
17345;SDS011;8790;53.590;10.002;2023-04-03T10:56:56;3.07;;;1.20;;
17345;SDS011;8790;53.590;10.002;2023-04-03T10:59:33;1.67;;;0.93;;
17345;SDS011;8790;53.590;10.002;2023-04-03T11:02:11;2.53;;;1.10;;
17345;SDS011;8790;53.590;10.002;2023-04-03T11:04:51;2.13;;;1.17;;
17345;SDS011;8790;53.590;10.002;2023-04-03T11:07:28;1.63;;;0.97;;
17345;SDS011;8790;53.590;10.002;2023-04-03T11:10:10;2.37;;;1.20;;
17345;SDS011;8790;53.590;10.002;2023-04-03T11:12:48;1.10;;;0.93;;
17345;SDS011;8790;53.590;10.002;2023-04-03T11:15:22;3.63;;;1.10;;
17345;SDS011;8790;53.590;10.002;2023-04-03T11:17:55;2.37;;;1.00;;
17345;SDS011;8790;53.590;10.002;2023-04-03T11:20:34;1.93;;;0.90;;
17345;SDS011;8790;53.590;10.002;2023-04-03T11:23:10;2.53;;;1.27;;
17345;SDS011;8790;53.590;10.002;2023-04-03T11:25:49;4.37;;;1.40;;
17345;SDS011;8790;53.590;10.002;2023-04-03T11:28:23;2.73;;;1.13;;
17345;SDS011;8790;53.590;10.002;2023-04-03T11:30:57;3.07;;;1.53;;
17345;SDS011;8790;53.590;10.002;2023-04-03T11:33:40;3.07;;;1.17;;
17345;SDS011;8790;53.590;10.002;2023-04-03T11:36:19;2.53;;;1.50;;
17345;SDS011;8790;53.590;10.002;2023-04-03T11:38:55;1.10;;;1.00;;
17345;SDS011;8790;53.590;10.002;2023-04-03T11:41:29;2.77;;;1.20;;
17345;SDS011;8790;53.590;10.002;2023-04-03T11:44:03;4.07;;;1.27;;
17345;SDS011;8790;53.590;10.002;2023-04-03T11:46:54;3.10;;;1.10;;
17345;SDS011;8790;53.590;10.002;2023-04-03T11:55:45;1.77;;;1.07;;
17345;SDS011;8790;53.590;10.002;2023-04-03T11:58:24;2.30;;;1.00;;
17345;SDS011;8790;53.590;10.002;2023-04-03T12:00:58;1.87;;;0.77;;
17345;SDS011;8790;53.590;10.002;2023-04-03T12:12:56;1.30;;;0.80;;
17345;SDS011;8790;53.590;10.002;2023-04-03T12:15:44;2.23;;;1.00;;
17345;SDS011;8790;53.590;10.002;2023-04-03T12:24:38;3.67;;;1.30;;
17345;SDS011;8790;53.590;10.002;2023-04-03T12:27:21;2.03;;;1.10;;
17345;SDS011;8790;53.590;10.002;2023-04-03T12:30:05;3.47;;;1.50;;
17345;SDS011;8790;53.590;10.002;2023-04-03T12:32:49;2.70;;;1.20;;
17345;SDS011;8790;53.590;10.002;2023-04-03T12:35:29;1.27;;;1.00;;
17345;SDS011;8790;53.590;10.002;2023-04-03T12:38:17;1.63;;;1.03;;
17345;SDS011;8790;53.590;10.002;2023-04-03T12:41:16;1.80;;;0.90;;
17345;SDS011;8790;53.590;10.002;2023-04-03T12:44:01;2.03;;;1.00;;
17345;SDS011;8790;53.590;10.002;2023-04-03T12:46:51;2.20;;;1.07;;
17345;SDS011;8790;53.590;10.002;2023-04-03T12:49:26;2.73;;;1.13;;
17345;SDS011;8790;53.590;10.002;2023-04-03T12:52:12;1.77;;;1.07;;
17345;SDS011;8790;53.590;10.002;2023-04-03T12:54:51;3.30;;;1.00;;
17345;SDS011;8790;53.590;10.002;2023-04-03T12:57:24;2.43;;;1.30;;
17345;SDS011;8790;53.590;10.002;2023-04-03T12:59:59;2.83;;;1.20;;
17345;SDS011;8790;53.590;10.002;2023-04-03T13:02:31;3.03;;;0.87;;
17345;SDS011;8790;53.590;10.002;2023-04-03T13:05:06;2.80;;;1.10;;
17345;SDS011;8790;53.590;10.002;2023-04-03T13:07:40;2.07;;;0.80;;
17345;SDS011;8790;53.590;10.002;2023-04-03T13:10:14;2.30;;;1.03;;
17345;SDS011;8790;53.590;10.002;2023-04-03T13:12:49;2.37;;;1.10;;
17345;SDS011;8790;53.590;10.002;2023-04-03T13:15:24;3.00;;;1.10;;
17345;SDS011;8790;53.590;10.002;2023-04-03T13:17:57;2.37;;;0.87;;
17345;SDS011;8790;53.590;10.002;2023-04-03T13:20:30;2.97;;;1.03;;
17345;SDS011;8790;53.590;10.002;2023-04-03T13:23:06;2.13;;;0.80;;
17345;SDS011;8790;53.590;10.002;2023-04-03T13:25:40;3.10;;;1.03;;
17345;SDS011;8790;53.590;10.002;2023-04-03T13:28:15;2.03;;;0.93;;
17345;SDS011;8790;53.590;10.002;2023-04-03T13:30:55;2.50;;;0.90;;
17345;SDS011;8790;53.590;10.002;2023-04-03T13:33:33;1.63;;;1.10;;
17345;SDS011;8790;53.590;10.002;2023-04-03T13:36:08;2.27;;;1.00;;
17345;SDS011;8790;53.590;10.002;2023-04-03T13:38:57;3.50;;;0.83;;
17345;SDS011;8790;53.590;10.002;2023-04-03T13:41:31;2.50;;;1.30;;
17345;SDS011;8790;53.590;10.002;2023-04-03T13:44:17;3.57;;;1.10;;
17345;SDS011;8790;53.590;10.002;2023-04-03T13:46:59;1.33;;;0.73;;
17345;SDS011;8790;53.590;10.002;2023-04-03T13:49:33;1.13;;;0.90;;
17345;SDS011;8790;53.590;10.002;2023-04-03T13:52:22;2.03;;;1.10;;
17345;SDS011;8790;53.590;10.002;2023-04-03T13:54:58;3.57;;;0.97;;
17345;SDS011;8790;53.590;10.002;2023-04-03T13:57:31;3.17;;;0.97;;
17345;SDS011;8790;53.590;10.002;2023-04-03T14:02:53;1.70;;;0.87;;
17345;SDS011;8790;53.590;10.002;2023-04-03T14:05:27;3.53;;;2.53;;
17345;SDS011;8790;53.590;10.002;2023-04-03T14:07:59;2.03;;;1.10;;
17345;SDS011;8790;53.590;10.002;2023-04-03T14:10:32;1.30;;;0.90;;
17345;SDS011;8790;53.590;10.002;2023-04-03T14:13:03;2.73;;;0.90;;
17345;SDS011;8790;53.590;10.002;2023-04-03T14:15:37;4.10;;;0.80;;
17345;SDS011;8790;53.590;10.002;2023-04-03T14:18:11;4.30;;;0.80;;
17345;SDS011;8790;53.590;10.002;2023-04-03T14:20:44;1.60;;;0.70;;
17345;SDS011;8790;53.590;10.002;2023-04-03T14:23:16;1.10;;;0.70;;
17345;SDS011;8790;53.590;10.002;2023-04-03T14:25:48;2.23;;;1.20;;
17345;SDS011;8790;53.590;10.002;2023-04-03T14:28:20;1.73;;;1.13;;
17345;SDS011;8790;53.590;10.002;2023-04-03T14:30:53;2.00;;;1.03;;
17345;SDS011;8790;53.590;10.002;2023-04-03T14:33:26;1.97;;;0.80;;
17345;SDS011;8790;53.590;10.002;2023-04-03T14:36:01;1.77;;;1.00;;
17345;SDS011;8790;53.590;10.002;2023-04-03T14:38:33;1.90;;;1.00;;
17345;SDS011;8790;53.590;10.002;2023-04-03T14:41:05;2.70;;;1.00;;
17345;SDS011;8790;53.590;10.002;2023-04-03T14:43:36;2.03;;;1.17;;
17345;SDS011;8790;53.590;10.002;2023-04-03T14:46:11;1.83;;;1.00;;
17345;SDS011;8790;53.590;10.002;2023-04-03T14:48:46;2.60;;;1.00;;
17345;SDS011;8790;53.590;10.002;2023-04-03T14:51:18;2.37;;;0.90;;
17345;SDS011;8790;53.590;10.002;2023-04-03T14:53:50;2.73;;;1.10;;
17345;SDS011;8790;53.590;10.002;2023-04-03T14:56:26;2.40;;;1.00;;
17345;SDS011;8790;53.590;10.002;2023-04-03T14:59:00;2.20;;;1.00;;
17345;SDS011;8790;53.590;10.002;2023-04-03T15:01:32;2.10;;;1.13;;
17345;SDS011;8790;53.590;10.002;2023-04-03T15:04:08;2.83;;;1.07;;
17345;SDS011;8790;53.590;10.002;2023-04-03T15:06:42;3.80;;;1.20;;
17345;SDS011;8790;53.590;10.002;2023-04-03T15:09:19;2.20;;;1.20;;
17345;SDS011;8790;53.590;10.002;2023-04-03T15:11:53;1.50;;;0.90;;
17345;SDS011;8790;53.590;10.002;2023-04-03T15:14:25;3.03;;;1.37;;
17345;SDS011;8790;53.590;10.002;2023-04-03T15:16:57;2.97;;;1.10;;
17345;SDS011;8790;53.590;10.002;2023-04-03T15:19:30;2.97;;;1.30;;
17345;SDS011;8790;53.590;10.002;2023-04-03T15:22:08;3.80;;;1.30;;
17345;SDS011;8790;53.590;10.002;2023-04-03T15:24:43;2.80;;;1.20;;
17345;SDS011;8790;53.590;10.002;2023-04-03T15:27:16;3.23;;;1.20;;
17345;SDS011;8790;53.590;10.002;2023-04-03T15:29:47;1.33;;;1.00;;
17345;SDS011;8790;53.590;10.002;2023-04-03T15:32:19;5.07;;;1.20;;
17345;SDS011;8790;53.590;10.002;2023-04-03T15:34:52;2.13;;;1.10;;
17345;SDS011;8790;53.590;10.002;2023-04-03T15:37:24;3.67;;;1.30;;
17345;SDS011;8790;53.590;10.002;2023-04-03T15:39:56;2.30;;;1.13;;
17345;SDS011;8790;53.590;10.002;2023-04-03T15:42:28;2.20;;;1.13;;
17345;SDS011;8790;53.590;10.002;2023-04-03T15:45:00;2.60;;;1.23;;
17345;SDS011;8790;53.590;10.002;2023-04-03T15:47:32;2.00;;;1.20;;
17345;SDS011;8790;53.590;10.002;2023-04-03T15:50:05;2.37;;;1.00;;
17345;SDS011;8790;53.590;10.002;2023-04-03T15:52:39;3.93;;;1.20;;
17345;SDS011;8790;53.590;10.002;2023-04-03T15:55:11;1.87;;;1.17;;
17345;SDS011;8790;53.590;10.002;2023-04-03T15:57:42;7.17;;;3.83;;
17345;SDS011;8790;53.590;10.002;2023-04-03T16:00:14;2.33;;;1.43;;